createdAt,value
2023-05-09T00:01:58.575Z,4.47
2023-05-09T00:06:22.486Z,4.42
2023-05-09T00:10:46.479Z,4.36
2023-05-09T00:15:10.291Z,4.28
2023-05-09T00:19:34.134Z,4.21
2023-05-09T00:23:57.560Z,4.14
2023-05-09T00:28:21.363Z,4.13
2023-05-09T00:32:45.220Z,4.09
2023-05-09T00:37:09.194Z,4.06
2023-05-09T00:41:32.655Z,4.02
2023-05-09T00:45:50.146Z,4.01
2023-05-09T00:50:13.939Z,4.06
2023-05-09T00:54:37.807Z,4.12
2023-05-09T00:59:01.550Z,4.13
2023-05-09T01:02:35.714Z,4.13
2023-05-09T01:05:52.452Z,4.12
2023-05-09T01:09:14.074Z,4.06
2023-05-09T01:12:30.309Z,4.00
2023-05-09T01:15:39.154Z,3.93
2023-05-09T01:19:06.693Z,3.89
2023-05-09T01:22:14.159Z,3.91
2023-05-09T01:25:32.808Z,3.90
2023-05-09T01:29:12.930Z,3.90
2023-05-09T01:32:23.161Z,3.89
2023-05-09T01:35:29.303Z,3.86
2023-05-09T01:38:33.170Z,3.83
2023-05-09T01:41:37.898Z,3.83
2023-05-09T01:44:44.303Z,3.83
2023-05-09T01:47:49.358Z,3.81
2023-05-09T01:50:54.914Z,3.76
2023-05-09T01:53:59.779Z,3.72
2023-05-09T01:57:04.844Z,3.68
2023-05-09T02:00:10.106Z,3.69
2023-05-09T02:03:22.008Z,3.70
2023-05-09T02:06:25.637Z,3.72
2023-05-09T02:09:28.656Z,3.74
2023-05-09T02:12:31.430Z,3.74
2023-05-09T02:15:34.842Z,3.75
2023-05-09T02:18:38.385Z,3.72
2023-05-09T02:21:41.904Z,3.62
2023-05-09T02:24:46.895Z,3.49
2023-05-09T02:27:51.126Z,3.36
2023-05-09T02:30:57.004Z,3.22
2023-05-09T02:34:02.290Z,3.12
2023-05-09T02:37:05.662Z,3.03
2023-05-09T02:40:11.973Z,3.01
2023-05-09T02:43:15.356Z,3.03
2023-05-09T02:46:18.484Z,3.04
2023-05-09T02:49:31.592Z,3.09
2023-05-09T02:52:36.209Z,3.15
2023-05-09T02:55:39.163Z,3.18
2023-05-09T02:58:41.877Z,3.16
2023-05-09T03:01:44.671Z,3.05
2023-05-09T03:04:47.452Z,2.93
2023-05-09T03:07:51.404Z,2.87
2023-05-09T03:10:54.380Z,2.82
2023-05-09T03:13:57.925Z,2.85
2023-05-09T03:17:00.936Z,2.90
2023-05-09T03:20:09.843Z,3.01
2023-05-09T03:23:12.711Z,3.17
2023-05-09T03:26:15.607Z,3.36
2023-05-09T03:29:18.338Z,3.57
2023-05-09T03:32:21.115Z,3.84
2023-05-09T03:35:24.044Z,4.16
2023-05-09T03:38:26.794Z,4.48
2023-05-09T03:41:30.615Z,4.81
2023-05-09T03:44:33.574Z,5.17
2023-05-09T03:47:36.519Z,5.52
2023-05-09T03:50:39.342Z,5.79
2023-05-09T03:53:46.130Z,6.07
2023-05-09T03:56:50.778Z,6.33
2023-05-09T03:59:53.754Z,6.64
2023-05-09T04:02:56.856Z,6.93
2023-05-09T04:06:13.088Z,7.23
2023-05-09T04:09:19.229Z,7.49
2023-05-09T04:12:23.145Z,7.74
2023-05-09T04:15:27.136Z,8.00
2023-05-09T04:18:31.371Z,8.24
2023-05-09T04:21:34.323Z,8.48
2023-05-09T04:24:37.690Z,8.80
2023-05-09T04:27:40.643Z,9.08
2023-05-09T04:30:43.587Z,9.34
2023-05-09T04:33:46.582Z,9.64
2023-05-09T04:36:49.458Z,9.88
2023-05-09T04:39:52.368Z,10.05
2023-05-09T04:43:00.736Z,10.26
2023-05-09T04:46:06.304Z,10.45
2023-05-09T04:49:09.726Z,10.65
2023-05-09T04:52:12.510Z,10.88
2023-05-09T04:55:15.952Z,11.06
2023-05-09T04:58:21.208Z,11.24
2023-05-09T05:01:24.034Z,11.39
2023-05-09T05:04:28.223Z,11.59
2023-05-09T05:07:31.178Z,11.75
2023-05-09T05:10:34.274Z,11.90
2023-05-09T05:13:41.799Z,12.04
2023-05-09T05:16:45.002Z,12.20
2023-05-09T05:19:48.450Z,12.43
2023-05-09T05:22:51.748Z,12.60
2023-05-09T05:25:54.718Z,12.76
2023-05-09T05:28:58.716Z,12.75
2023-05-09T05:32:01.777Z,12.85
2023-05-09T05:35:05.072Z,12.96
2023-05-09T05:38:08.681Z,13.14
2023-05-09T05:41:12.307Z,13.26
2023-05-09T05:44:16.212Z,13.36
2023-05-09T05:47:19.608Z,13.55
2023-05-09T05:50:23.484Z,13.70
2023-05-09T05:53:26.492Z,13.88
2023-05-09T05:56:29.625Z,14.04
2023-05-09T05:59:33.033Z,14.21
2023-05-09T06:02:36.095Z,14.43
2023-05-09T06:05:43.108Z,14.46
2023-05-09T06:08:46.753Z,14.46
2023-05-09T06:11:50.363Z,14.42
2023-05-09T06:14:53.396Z,14.52
2023-05-09T06:17:56.481Z,14.47
2023-05-09T06:20:59.452Z,14.43
2023-05-09T06:24:11.823Z,14.30
2023-05-09T06:27:17.348Z,14.15
2023-05-09T06:33:25.945Z,14.19
2023-05-09T06:36:28.686Z,14.29
2023-05-09T06:39:31.538Z,14.43
2023-05-09T06:42:34.400Z,14.48
2023-05-09T06:45:37.172Z,14.54
2023-05-09T06:48:40.028Z,14.46
2023-05-09T06:51:42.747Z,14.58
2023-05-09T06:54:45.492Z,14.76
2023-05-09T06:57:48.311Z,14.83
2023-05-09T07:00:51.581Z,15.00
2023-05-09T07:03:54.325Z,14.84
2023-05-09T07:06:57.132Z,14.69
2023-05-09T07:10:10.551Z,14.57
2023-05-09T07:13:14.610Z,14.68
2023-05-09T07:16:18.570Z,14.92
2023-05-09T07:19:21.628Z,15.05
2023-05-09T07:22:24.509Z,15.09
2023-05-09T07:25:27.465Z,15.29
2023-05-09T07:28:30.279Z,15.44
2023-05-09T07:31:35.317Z,15.60
2023-05-09T07:34:40.253Z,15.69
2023-05-09T07:37:43.026Z,15.58
2023-05-09T07:40:45.824Z,15.39
2023-05-09T07:43:48.575Z,15.10
2023-05-09T07:46:51.384Z,14.96
2023-05-09T07:49:54.186Z,14.94
2023-05-09T07:52:56.976Z,15.04
2023-05-09T07:55:59.936Z,15.05
2023-05-09T07:59:03.495Z,14.97
2023-05-09T08:02:06.656Z,15.10
2023-05-09T08:05:11.782Z,15.29
2023-05-09T08:08:14.625Z,15.49
2023-05-09T08:11:17.455Z,15.22
2023-05-09T08:14:20.239Z,15.12
2023-05-09T08:17:22.978Z,15.26
2023-05-09T08:20:25.782Z,15.35
2023-05-09T08:23:30.407Z,15.47
2023-05-09T08:26:34.168Z,15.72
2023-05-09T08:29:36.874Z,16.13
2023-05-09T08:32:39.633Z,16.36
2023-05-09T08:35:42.567Z,16.23
2023-05-09T08:38:45.894Z,16.07
2023-05-09T08:41:48.796Z,15.91
2023-05-09T08:44:51.843Z,15.68
2023-05-09T08:47:55.158Z,15.48
2023-05-09T08:50:59.010Z,15.48
2023-05-09T08:54:02.516Z,15.59
2023-05-09T08:57:06.206Z,15.55
2023-05-09T09:00:12.095Z,15.46
2023-05-09T09:03:16.923Z,15.36
2023-05-09T09:06:22.504Z,15.57
2023-05-09T09:09:26.746Z,15.63
2023-05-09T09:12:30.042Z,15.63
2023-05-09T09:15:37.867Z,15.58
2023-05-09T09:18:40.966Z,15.54
2023-05-09T09:21:47.350Z,15.57
2023-05-09T09:24:50.927Z,15.78
2023-05-09T09:27:53.717Z,15.97
2023-05-09T09:30:56.947Z,15.99
2023-05-09T09:34:01.418Z,16.01
2023-05-09T09:37:07.263Z,15.89
2023-05-09T09:40:12.106Z,15.64
2023-05-09T09:43:15.375Z,15.45
2023-05-09T09:46:19.443Z,15.41
2023-05-09T09:49:23.974Z,15.42
2023-05-09T09:52:27.092Z,15.63
2023-05-09T09:55:29.924Z,15.81
2023-05-09T09:58:32.684Z,15.99
2023-05-09T10:01:35.454Z,16.21
2023-05-09T10:04:41.426Z,16.57
2023-05-09T10:07:44.143Z,16.53
2023-05-09T10:10:47.127Z,16.38
2023-05-09T10:13:50.452Z,16.44
2023-05-09T10:16:57.687Z,16.45
2023-05-09T10:20:05.981Z,16.28
2023-05-09T10:23:11.784Z,16.15
2023-05-09T10:26:38.198Z,16.01
2023-05-09T10:29:46.600Z,15.91
2023-05-09T10:32:51.934Z,15.90
2023-05-09T10:35:56.332Z,16.21
2023-05-09T10:39:01.344Z,16.33
2023-05-09T10:42:06.064Z,16.22
2023-05-09T10:45:11.017Z,16.03
2023-05-09T10:48:14.576Z,15.91
2023-05-09T10:51:17.699Z,15.97
2023-05-09T10:54:33.622Z,15.99
2023-05-09T10:57:39.225Z,15.97
2023-05-09T11:00:42.535Z,15.87
2023-05-09T11:04:00.085Z,15.89
2023-05-09T11:07:02.961Z,16.00
2023-05-09T11:10:10.003Z,15.97
2023-05-09T11:13:13.304Z,15.96
2023-05-09T11:16:16.537Z,15.90
2023-05-09T11:19:53.909Z,15.97
2023-05-09T11:22:57.537Z,16.00
2023-05-09T11:26:08.620Z,15.98
2023-05-09T11:29:12.350Z,15.97
2023-05-09T11:32:16.068Z,15.93
2023-05-09T11:35:21.259Z,15.98
2023-05-09T11:38:25.739Z,16.03
2023-05-09T11:41:29.370Z,16.09
2023-05-09T11:44:33.626Z,16.03
2023-05-09T11:47:40.296Z,16.05
2023-05-09T11:50:43.116Z,16.13
2023-05-09T11:53:49.725Z,16.11
2023-05-09T11:56:52.351Z,16.14
2023-05-09T11:59:55.515Z,16.15
2023-05-09T12:02:58.381Z,16.24
2023-05-09T12:06:01.325Z,16.38
2023-05-09T12:09:04.213Z,16.52
2023-05-09T12:12:13.838Z,16.63
2023-05-09T12:15:18.141Z,16.61
2023-05-09T12:18:22.248Z,16.55
2023-05-09T12:21:25.026Z,16.82
2023-05-09T12:24:29.429Z,16.92
2023-05-09T12:27:33.202Z,16.82
2023-05-09T12:30:36.120Z,16.78
2023-05-09T12:33:39.745Z,16.75
2023-05-09T12:36:50.843Z,16.68
2023-05-09T12:40:15.538Z,16.57
2023-05-09T12:43:18.614Z,16.52
2023-05-09T12:46:22.003Z,16.44
2023-05-09T12:49:26.047Z,16.44
2023-05-09T12:52:54.103Z,16.46
2023-05-09T12:56:11.586Z,16.47
2023-05-09T12:59:20.642Z,16.38
2023-05-09T13:02:23.652Z,16.41
2023-05-09T13:05:26.550Z,16.45
2023-05-09T13:08:30.263Z,16.41
2023-05-09T13:11:33.310Z,16.42
2023-05-09T13:14:36.115Z,16.32
2023-05-09T13:17:38.986Z,16.28
2023-05-09T13:20:41.851Z,16.37
2023-05-09T13:23:45.649Z,16.36
2023-05-09T13:26:48.930Z,16.41
2023-05-09T13:29:51.745Z,16.28
2023-05-09T13:32:54.544Z,16.26
2023-05-09T13:35:57.550Z,16.28
2023-05-09T13:39:00.772Z,16.26
2023-05-09T13:42:04.085Z,16.23
2023-05-09T13:45:08.379Z,16.32
2023-05-09T13:48:11.825Z,16.27
2023-05-09T13:51:15.101Z,16.21
2023-05-09T13:54:19.916Z,16.20
2023-05-09T13:57:22.805Z,16.21
2023-05-09T14:00:26.707Z,16.10
2023-05-09T14:03:29.695Z,16.03
2023-05-09T14:06:33.344Z,16.01
2023-05-09T14:09:40.097Z,15.98
2023-05-09T14:12:47.289Z,15.95
2023-05-09T14:15:50.258Z,16.01
2023-05-09T14:18:53.061Z,16.04
2023-05-09T14:21:56.124Z,16.13
2023-05-09T14:24:59.152Z,16.14
2023-05-09T14:28:01.885Z,16.17
2023-05-09T14:31:06.396Z,16.13
2023-05-09T14:34:09.480Z,16.08
2023-05-09T14:37:15.193Z,16.01
2023-05-09T14:40:18.128Z,15.95
2023-05-09T14:43:24.361Z,15.88
2023-05-09T14:46:27.274Z,15.84
2023-05-09T14:49:30.357Z,15.80
2023-05-09T14:52:33.116Z,15.81
2023-05-09T14:55:36.342Z,15.85
2023-05-09T14:58:39.130Z,15.83
2023-05-09T15:01:42.100Z,15.73
2023-05-09T15:04:45.108Z,15.67
2023-05-09T15:07:47.973Z,15.63
2023-05-09T15:10:51.403Z,15.57
2023-05-09T15:13:54.379Z,15.54
2023-05-09T15:17:00.100Z,15.47
2023-05-09T15:20:04.396Z,15.41
2023-05-09T15:23:07.914Z,15.42
2023-05-09T15:26:13.592Z,15.43
2023-05-09T15:29:16.358Z,15.39
2023-05-09T15:32:19.125Z,15.34
2023-05-09T15:35:21.859Z,15.29
2023-05-09T15:38:24.822Z,15.26
2023-05-09T15:41:27.529Z,15.25
2023-05-09T15:44:30.241Z,15.19
2023-05-09T15:47:33.081Z,15.10
2023-05-09T15:50:36.054Z,15.03
2023-05-09T15:53:38.997Z,14.99
2023-05-09T15:56:41.772Z,14.96
2023-05-09T15:59:44.632Z,14.94
2023-05-09T16:02:47.531Z,14.94
2023-05-09T16:05:50.932Z,14.92
2023-05-09T16:08:54.374Z,14.88
2023-05-09T16:11:57.139Z,14.83
2023-05-09T16:15:00.680Z,14.77
2023-05-09T16:18:03.734Z,14.70
2023-05-09T16:21:06.793Z,14.65
2023-05-09T16:24:09.623Z,14.60
2023-05-09T16:27:14.416Z,14.55
2023-05-09T16:30:17.585Z,14.50
2023-05-09T16:33:20.844Z,14.46
2023-05-09T16:36:23.772Z,14.43
2023-05-09T16:39:28.073Z,14.39
2023-05-09T16:42:30.946Z,14.36
2023-05-09T16:45:33.766Z,14.32
2023-05-09T16:48:36.571Z,14.28
2023-05-09T16:51:39.518Z,14.24
2023-05-09T16:54:42.320Z,14.21
2023-05-09T16:57:45.052Z,14.16
2023-05-09T17:00:48.268Z,14.12
2023-05-09T17:03:51.320Z,14.07
2023-05-09T17:06:54.204Z,14.02
2023-05-09T17:09:56.944Z,13.96
2023-05-09T17:12:59.932Z,13.93
2023-05-09T17:16:02.945Z,13.85
2023-05-09T17:19:05.784Z,13.79
2023-05-09T17:22:08.850Z,13.74
2023-05-09T17:25:11.775Z,13.70
2023-05-09T17:28:14.637Z,13.65
2023-05-09T17:31:17.483Z,13.60
2023-05-09T17:34:20.406Z,13.52
2023-05-09T17:37:23.310Z,13.45
2023-05-09T17:40:26.228Z,13.40
2023-05-09T17:43:29.004Z,13.35
2023-05-09T17:46:32.523Z,13.30
2023-05-09T17:49:36.459Z,13.21
2023-05-09T17:52:39.849Z,13.14
2023-05-09T17:55:43.130Z,13.07
2023-05-09T17:58:46.355Z,12.99
2023-05-09T18:01:49.182Z,12.91
2023-05-09T18:04:52.458Z,12.84
2023-05-09T18:07:56.769Z,12.75
2023-05-09T18:10:59.501Z,12.68
2023-05-09T18:14:02.911Z,12.63
2023-05-09T18:17:05.737Z,12.55
2023-05-09T18:20:09.203Z,12.48
2023-05-09T18:23:12.082Z,12.42
2023-05-09T18:26:14.973Z,12.36
2023-05-09T18:29:17.901Z,12.31
2023-05-09T18:32:21.328Z,12.25
2023-05-09T18:35:24.360Z,12.17
2023-05-09T18:38:27.440Z,12.08
2023-05-09T18:41:31.954Z,12.00
2023-05-09T18:44:36.521Z,11.92
2023-05-09T18:47:39.361Z,11.87
2023-05-09T18:50:42.683Z,11.81
2023-05-09T18:53:47.316Z,11.72
2023-05-09T18:56:50.254Z,11.63
2023-05-09T18:59:53.030Z,11.56
2023-05-09T19:02:55.878Z,11.46
2023-05-09T19:05:59.903Z,11.38
2023-05-09T19:09:04.276Z,11.31
2023-05-09T19:12:09.171Z,11.23
2023-05-09T19:15:12.531Z,11.15
2023-05-09T19:18:15.359Z,11.07
2023-05-09T19:21:18.849Z,11.00
2023-05-09T19:24:22.186Z,10.91
2023-05-09T19:27:24.948Z,10.83
2023-05-09T19:30:27.785Z,10.76
2023-05-09T19:33:30.595Z,10.72
2023-05-09T19:36:33.778Z,10.66
2023-05-09T19:39:36.574Z,10.61
2023-05-09T19:42:39.477Z,10.54
2023-05-09T19:45:42.670Z,10.47
2023-05-09T19:48:45.561Z,10.41
2023-05-09T19:51:48.474Z,10.35
2023-05-09T19:54:51.414Z,10.29
2023-05-09T19:57:54.219Z,10.24
2023-05-09T20:00:57.094Z,10.20
2023-05-09T20:04:00.140Z,10.17
2023-05-09T20:07:04.814Z,10.16
2023-05-09T20:10:08.395Z,10.12
2023-05-09T20:13:11.325Z,10.08
2023-05-09T20:16:14.599Z,10.04
2023-05-09T20:19:17.362Z,9.99
2023-05-09T20:22:20.749Z,9.94
2023-05-09T20:25:23.694Z,9.90
2023-05-09T20:28:26.414Z,9.86
2023-05-09T20:31:29.538Z,9.81
2023-05-09T20:34:32.419Z,9.76
2023-05-09T20:37:35.956Z,9.73
2023-05-09T20:40:38.730Z,9.70
2023-05-09T20:43:41.598Z,9.67
2023-05-09T20:46:45.441Z,9.64
2023-05-09T20:49:48.229Z,9.60
2023-05-09T20:52:51.052Z,9.55
2023-05-09T20:55:54.006Z,9.49
2023-05-09T20:59:00.854Z,9.43
2023-05-09T21:02:03.569Z,9.39
2023-05-09T21:05:06.857Z,9.34
2023-05-09T21:08:09.589Z,9.29
2023-05-09T21:11:12.301Z,9.25
2023-05-09T21:14:15.060Z,9.20
2023-05-09T21:17:18.008Z,9.15
2023-05-09T21:20:20.990Z,9.10
2023-05-09T21:23:23.731Z,9.08
2023-05-09T21:26:26.498Z,9.05
2023-05-09T21:29:29.296Z,9.02
2023-05-09T21:32:32.079Z,9.00
2023-05-09T21:35:34.827Z,8.97
2023-05-09T21:38:38.025Z,8.94
2023-05-09T21:41:43.058Z,8.92
2023-05-09T21:44:45.988Z,8.91
2023-05-09T21:47:49.164Z,8.89
2023-05-09T21:50:52.012Z,8.85
2023-05-09T21:53:55.109Z,8.83
2023-05-09T21:56:57.973Z,8.79
2023-05-09T22:00:01.600Z,8.75
2023-05-09T22:03:04.565Z,8.74
2023-05-09T22:06:07.777Z,8.70
2023-05-09T22:09:10.768Z,8.66
2023-05-09T22:12:13.580Z,8.63
2023-05-09T22:15:16.391Z,8.59
2023-05-09T22:18:19.111Z,8.57
2023-05-09T22:21:21.824Z,8.54
2023-05-09T22:24:24.874Z,8.50
2023-05-09T22:27:27.716Z,8.46
2023-05-09T22:30:30.878Z,8.42
2023-05-09T22:33:34.768Z,8.39
2023-05-09T22:36:37.476Z,8.35
2023-05-09T22:39:40.490Z,8.28
2023-05-09T22:42:43.197Z,8.22
2023-05-09T22:45:45.984Z,8.19
2023-05-09T22:48:48.729Z,8.14
2023-05-09T22:51:51.448Z,8.12
2023-05-09T22:54:54.180Z,8.09
2023-05-09T22:57:57.103Z,8.05
2023-05-09T23:00:59.848Z,7.99
2023-05-09T23:04:02.740Z,7.92
2023-05-09T23:07:05.462Z,7.87
2023-05-09T23:10:08.619Z,7.81
2023-05-09T23:13:12.440Z,7.77
2023-05-09T23:16:15.254Z,7.73
2023-05-09T23:19:18.126Z,7.70
2023-05-09T23:22:20.982Z,7.67
2023-05-09T23:25:23.810Z,7.60
2023-05-09T23:28:26.948Z,7.56
2023-05-09T23:31:29.749Z,7.53
2023-05-09T23:34:33.070Z,7.46
2023-05-09T23:37:35.925Z,7.44
2023-05-09T23:40:39.575Z,7.49
2023-05-09T23:43:42.575Z,7.51
2023-05-09T23:46:45.413Z,7.49
2023-05-09T23:49:48.218Z,7.43
2023-05-09T23:52:51.260Z,7.39
2023-05-09T23:55:54.008Z,7.34
2023-05-09T23:58:57.080Z,7.33
